Peabody, Indiana
Current Conditions -  °F | °C
As of 11:31 AM on Sunday 25 Jan 2015 (Local Time) from KFWA Reporting Station
Light Snow Light Snow  
Wind Chill: 16°   Ceiling: 600
Heat Index: 30°   Visibility: 2mi
Dew Point: 28°   Wind: 24mph
Humidity: 92%   Direction: 70°ENE
Pressure: 29.77"   Gusts: 31mph
Location:  41.1479°N, 85.4772°W
Report Text: KFWA 251631Z 07021G27KT 2SM -SN BR OVC006 M01/M02 A2977 RMK AO2 PK WND 06029/1605 CIG 004V010 P0000 T10111022
Loading
Personal Weather Stations






























Interactive Weather Map New forecast layout! Learn more

10-Day Weather Forecast

Advertisements
Track Severe Weather on mobile